Alts de San Pedro, Puerto Rico
Current Conditions -  °F | °C
As of 10:09 PM on Friday 21 Nov 2014 (Local Time) from TJNR Reporting Station
Overcast Overcast  
Wind Chill: 79°   Ceiling: 3900
Heat Index: 82°   Visibility: 10mi
Dew Point: 73°   Wind: 10mph
Humidity: 82%   Direction: 140°SE
Pressure: 30.06"   Gusts: NA
Location:  18.3304°N, 65.6573°W
Report Text: TJNR 220209Z AUTO 14009KT 10SM FEW022 BKN039 OVC100 26/23 A3006 RMK AO2 T02610228 $
Loading
Personal Weather Stations






























Interactive Weather Map New forecast layout! Learn more

10-Day Weather Forecast

Advertisements
Track Severe Weather on mobile